sensor_id;sensor_type;location;lat;lon;timestamp;temperature;humidity
56725;DHT22;42608;52.776;6.968;2023-08-24T00:01:30;18.50;99.90
56725;DHT22;42608;52.776;6.968;2023-08-24T00:03:56;18.50;99.90
56725;DHT22;42608;52.776;6.968;2023-08-24T00:06:21;18.50;99.90
56725;DHT22;42608;52.776;6.968;2023-08-24T00:08:47;18.50;99.90
56725;DHT22;42608;52.776;6.968;2023-08-24T00:11:13;18.50;99.90
56725;DHT22;42608;52.776;6.968;2023-08-24T00:13:43;18.50;99.90
56725;DHT22;42608;52.776;6.968;2023-08-24T00:16:14;18.40;99.90
56725;DHT22;42608;52.776;6.968;2023-08-24T00:18:40;18.50;99.90
56725;DHT22;42608;52.776;6.968;2023-08-24T00:21:06;18.40;99.90
56725;DHT22;42608;52.776;6.968;2023-08-24T00:23:33;18.40;99.90
56725;DHT22;42608;52.776;6.968;2023-08-24T00:25:59;18.30;99.90
56725;DHT22;42608;52.776;6.968;2023-08-24T00:28:28;18.20;99.90
56725;DHT22;42608;52.776;6.968;2023-08-24T00:30:53;18.10;99.90
56725;DHT22;42608;52.776;6.968;2023-08-24T00:33:19;18.10;99.90
56725;DHT22;42608;52.776;6.968;2023-08-24T00:35:44;18.10;99.90
56725;DHT22;42608;52.776;6.968;2023-08-24T00:38:10;18.10;99.90
56725;DHT22;42608;52.776;6.968;2023-08-24T00:40:36;18.10;99.90
56725;DHT22;42608;52.776;6.968;2023-08-24T00:43:01;18.00;99.90
56725;DHT22;42608;52.776;6.968;2023-08-24T00:45:27;18.00;99.90
56725;DHT22;42608;52.776;6.968;2023-08-24T00:47:53;18.00;99.90
56725;DHT22;42608;52.776;6.968;2023-08-24T00:50:18;18.00;99.90
56725;DHT22;42608;52.776;6.968;2023-08-24T00:52:45;17.90;99.90
56725;DHT22;42608;52.776;6.968;2023-08-24T00:55:12;17.90;99.90
56725;DHT22;42608;52.776;6.968;2023-08-24T00:57:38;17.90;99.90
56725;DHT22;42608;52.776;6.968;2023-08-24T01:00:05;17.90;99.90
56725;DHT22;42608;52.776;6.968;2023-08-24T01:02:31;17.90;99.90
56725;DHT22;42608;52.776;6.968;2023-08-24T01:04:58;17.90;99.90
56725;DHT22;42608;52.776;6.968;2023-08-24T01:07:24;17.90;99.90
56725;DHT22;42608;52.776;6.968;2023-08-24T01:09:50;17.80;99.90
56725;DHT22;42608;52.776;6.968;2023-08-24T01:12:31;17.80;99.90
56725;DHT22;42608;52.776;6.968;2023-08-24T01:15:09;17.80;99.90
56725;DHT22;42608;52.776;6.968;2023-08-24T01:17:37;17.80;99.90
56725;DHT22;42608;52.776;6.968;2023-08-24T01:20:04;17.80;99.90
56725;DHT22;42608;52.776;6.968;2023-08-24T01:27:41;17.70;99.90
56725;DHT22;42608;52.776;6.968;2023-08-24T01:30:07;17.60;99.90
56725;DHT22;42608;52.776;6.968;2023-08-24T01:32:34;17.60;99.90
56725;DHT22;42608;52.776;6.968;2023-08-24T01:35:01;17.60;99.90
56725;DHT22;42608;52.776;6.968;2023-08-24T01:37:27;17.60;99.90
56725;DHT22;42608;52.776;6.968;2023-08-24T01:39:56;17.50;99.90
56725;DHT22;42608;52.776;6.968;2023-08-24T01:42:26;17.50;99.90
56725;DHT22;42608;52.776;6.968;2023-08-24T01:44:55;17.40;99.90
56725;DHT22;42608;52.776;6.968;2023-08-24T01:47:24;17.30;99.90
56725;DHT22;42608;52.776;6.968;2023-08-24T01:49:50;17.30;99.90
56725;DHT22;42608;52.776;6.968;2023-08-24T01:52:16;17.30;99.90
56725;DHT22;42608;52.776;6.968;2023-08-24T01:54:42;17.30;99.90
56725;DHT22;42608;52.776;6.968;2023-08-24T01:57:08;17.30;99.90
56725;DHT22;42608;52.776;6.968;2023-08-24T01:59:34;17.30;99.90
56725;DHT22;42608;52.776;6.968;2023-08-24T02:01:59;17.30;99.90
56725;DHT22;42608;52.776;6.968;2023-08-24T02:04:25;17.20;99.90
56725;DHT22;42608;52.776;6.968;2023-08-24T02:06:50;17.30;99.90
56725;DHT22;42608;52.776;6.968;2023-08-24T02:09:16;17.20;99.90
56725;DHT22;42608;52.776;6.968;2023-08-24T02:11:41;17.20;99.90
56725;DHT22;42608;52.776;6.968;2023-08-24T02:14:07;17.30;99.90
56725;DHT22;42608;52.776;6.968;2023-08-24T02:16:32;17.30;99.90
56725;DHT22;42608;52.776;6.968;2023-08-24T02:18:58;17.30;99.90
56725;DHT22;42608;52.776;6.968;2023-08-24T02:21:24;17.30;99.90
56725;DHT22;42608;52.776;6.968;2023-08-24T02:23:49;17.30;99.90
56725;DHT22;42608;52.776;6.968;2023-08-24T02:26:15;17.40;99.90
56725;DHT22;42608;52.776;6.968;2023-08-24T02:28:40;17.40;99.90
56725;DHT22;42608;52.776;6.968;2023-08-24T02:31:06;17.40;99.90
56725;DHT22;42608;52.776;6.968;2023-08-24T02:33:32;17.40;99.90
56725;DHT22;42608;52.776;6.968;2023-08-24T02:35:57;17.40;99.90
56725;DHT22;42608;52.776;6.968;2023-08-24T02:38:23;17.40;99.90
56725;DHT22;42608;52.776;6.968;2023-08-24T02:40:49;17.40;99.90
56725;DHT22;42608;52.776;6.968;2023-08-24T02:43:14;17.40;99.90
56725;DHT22;42608;52.776;6.968;2023-08-24T02:45:40;17.40;99.90
56725;DHT22;42608;52.776;6.968;2023-08-24T02:48:05;17.40;99.90
56725;DHT22;42608;52.776;6.968;2023-08-24T02:50:31;17.40;99.90
56725;DHT22;42608;52.776;6.968;2023-08-24T02:52:57;17.40;99.90
56725;DHT22;42608;52.776;6.968;2023-08-24T02:55:24;17.40;99.90
56725;DHT22;42608;52.776;6.968;2023-08-24T02:57:49;17.50;99.90
56725;DHT22;42608;52.776;6.968;2023-08-24T03:00:15;17.40;99.90
56725;DHT22;42608;52.776;6.968;2023-08-24T03:02:40;17.40;99.90
56725;DHT22;42608;52.776;6.968;2023-08-24T03:05:06;17.40;99.90
56725;DHT22;42608;52.776;6.968;2023-08-24T03:07:32;17.50;99.90
56725;DHT22;42608;52.776;6.968;2023-08-24T03:09:57;17.40;99.90
56725;DHT22;42608;52.776;6.968;2023-08-24T03:12:23;17.50;99.90
56725;DHT22;42608;52.776;6.968;2023-08-24T03:14:51;17.40;99.90
56725;DHT22;42608;52.776;6.968;2023-08-24T03:17:16;17.40;99.90
56725;DHT22;42608;52.776;6.968;2023-08-24T03:19:45;17.40;99.90
56725;DHT22;42608;52.776;6.968;2023-08-24T03:22:11;17.40;99.90
56725;DHT22;42608;52.776;6.968;2023-08-24T03:24:36;17.40;99.90
56725;DHT22;42608;52.776;6.968;2023-08-24T03:27:02;17.40;99.90
56725;DHT22;42608;52.776;6.968;2023-08-24T03:29:27;17.40;99.90
56725;DHT22;42608;52.776;6.968;2023-08-24T03:31:53;17.40;99.90
56725;DHT22;42608;52.776;6.968;2023-08-24T03:34:19;17.40;99.90
56725;DHT22;42608;52.776;6.968;2023-08-24T03:36:46;17.40;99.90
56725;DHT22;42608;52.776;6.968;2023-08-24T03:39:13;17.30;99.90
56725;DHT22;42608;52.776;6.968;2023-08-24T03:41:39;17.30;99.90
56725;DHT22;42608;52.776;6.968;2023-08-24T03:44:04;17.30;99.90
56725;DHT22;42608;52.776;6.968;2023-08-24T03:46:30;17.20;99.90
56725;DHT22;42608;52.776;6.968;2023-08-24T03:48:55;17.20;99.90
56725;DHT22;42608;52.776;6.968;2023-08-24T03:51:21;17.20;99.90
56725;DHT22;42608;52.776;6.968;2023-08-24T03:53:47;17.20;99.90
56725;DHT22;42608;52.776;6.968;2023-08-24T03:56:12;17.20;99.90
56725;DHT22;42608;52.776;6.968;2023-08-24T03:58:38;17.20;99.90
56725;DHT22;42608;52.776;6.968;2023-08-24T04:01:03;17.20;99.90
56725;DHT22;42608;52.776;6.968;2023-08-24T04:03:29;17.20;99.90
56725;DHT22;42608;52.776;6.968;2023-08-24T04:05:54;17.20;99.90
56725;DHT22;42608;52.776;6.968;2023-08-24T04:08:20;17.20;99.90
56725;DHT22;42608;52.776;6.968;2023-08-24T04:10:45;17.20;99.90
56725;DHT22;42608;52.776;6.968;2023-08-24T04:13:11;17.20;99.90
56725;DHT22;42608;52.776;6.968;2023-08-24T04:15:36;17.20;99.90
56725;DHT22;42608;52.776;6.968;2023-08-24T04:18:02;17.20;99.90
56725;DHT22;42608;52.776;6.968;2023-08-24T04:20:28;17.10;99.90
56725;DHT22;42608;52.776;6.968;2023-08-24T04:22:54;17.10;99.90
56725;DHT22;42608;52.776;6.968;2023-08-24T04:25:20;17.10;99.90
56725;DHT22;42608;52.776;6.968;2023-08-24T04:27:45;17.00;99.90
56725;DHT22;42608;52.776;6.968;2023-08-24T04:30:11;17.00;99.90
56725;DHT22;42608;52.776;6.968;2023-08-24T04:32:37;17.00;99.90
56725;DHT22;42608;52.776;6.968;2023-08-24T04:35:03;17.00;99.90
56725;DHT22;42608;52.776;6.968;2023-08-24T04:37:28;16.90;99.90
56725;DHT22;42608;52.776;6.968;2023-08-24T04:39:54;16.90;99.90
56725;DHT22;42608;52.776;6.968;2023-08-24T04:42:19;16.90;99.90
56725;DHT22;42608;52.776;6.968;2023-08-24T04:44:45;16.80;99.90
56725;DHT22;42608;52.776;6.968;2023-08-24T04:47:10;16.80;99.90
56725;DHT22;42608;52.776;6.968;2023-08-24T04:49:36;16.70;99.90
56725;DHT22;42608;52.776;6.968;2023-08-24T04:52:02;16.70;99.90
56725;DHT22;42608;52.776;6.968;2023-08-24T04:54:28;16.70;99.90
56725;DHT22;42608;52.776;6.968;2023-08-24T04:56:54;16.70;99.90
56725;DHT22;42608;52.776;6.968;2023-08-24T04:59:20;16.70;99.90
56725;DHT22;42608;52.776;6.968;2023-08-24T05:01:45;16.70;99.90
56725;DHT22;42608;52.776;6.968;2023-08-24T05:04:11;16.70;99.90
56725;DHT22;42608;52.776;6.968;2023-08-24T05:06:36;16.70;99.90
56725;DHT22;42608;52.776;6.968;2023-08-24T05:09:02;16.60;99.90
56725;DHT22;42608;52.776;6.968;2023-08-24T05:11:27;16.60;99.90
56725;DHT22;42608;52.776;6.968;2023-08-24T05:13:56;16.70;99.90
56725;DHT22;42608;52.776;6.968;2023-08-24T05:16:22;16.70;99.90
56725;DHT22;42608;52.776;6.968;2023-08-24T05:18:47;16.70;99.90
56725;DHT22;42608;52.776;6.968;2023-08-24T05:21:13;16.70;99.90
56725;DHT22;42608;52.776;6.968;2023-08-24T05:23:38;16.70;99.90
56725;DHT22;42608;52.776;6.968;2023-08-24T05:26:04;16.70;99.90
56725;DHT22;42608;52.776;6.968;2023-08-24T05:28:30;16.70;99.90
56725;DHT22;42608;52.776;6.968;2023-08-24T05:30:56;16.70;99.90
56725;DHT22;42608;52.776;6.968;2023-08-24T05:33:23;16.80;99.90
56725;DHT22;42608;52.776;6.968;2023-08-24T05:35:49;16.80;99.90
56725;DHT22;42608;52.776;6.968;2023-08-24T05:38:15;16.80;99.90
56725;DHT22;42608;52.776;6.968;2023-08-24T05:40:41;16.80;99.90
56725;DHT22;42608;52.776;6.968;2023-08-24T05:43:11;16.90;99.90
56725;DHT22;42608;52.776;6.968;2023-08-24T05:45:36;16.90;99.90
56725;DHT22;42608;52.776;6.968;2023-08-24T05:48:04;16.90;99.90
56725;DHT22;42608;52.776;6.968;2023-08-24T05:50:30;16.90;99.90
56725;DHT22;42608;52.776;6.968;2023-08-24T05:52:55;16.80;99.90
56725;DHT22;42608;52.776;6.968;2023-08-24T05:55:22;16.80;99.90
56725;DHT22;42608;52.776;6.968;2023-08-24T05:57:47;16.90;99.90
56725;DHT22;42608;52.776;6.968;2023-08-24T06:00:13;17.00;99.90
56725;DHT22;42608;52.776;6.968;2023-08-24T06:02:39;16.90;99.90
56725;DHT22;42608;52.776;6.968;2023-08-24T06:05:05;17.00;99.90
56725;DHT22;42608;52.776;6.968;2023-08-24T06:07:33;17.00;99.90
56725;DHT22;42608;52.776;6.968;2023-08-24T06:09:59;17.00;99.90
56725;DHT22;42608;52.776;6.968;2023-08-24T06:12:24;17.10;99.90
56725;DHT22;42608;52.776;6.968;2023-08-24T06:14:50;17.10;99.90
56725;DHT22;42608;52.776;6.968;2023-08-24T06:17:16;17.10;99.90
56725;DHT22;42608;52.776;6.968;2023-08-24T06:19:42;17.20;99.90
56725;DHT22;42608;52.776;6.968;2023-08-24T06:22:08;17.20;99.90
56725;DHT22;42608;52.776;6.968;2023-08-24T06:24:33;17.30;99.90
56725;DHT22;42608;52.776;6.968;2023-08-24T06:26:59;17.30;99.90
56725;DHT22;42608;52.776;6.968;2023-08-24T06:29:24;17.40;99.90
56725;DHT22;42608;52.776;6.968;2023-08-24T06:31:50;17.40;99.90
56725;DHT22;42608;52.776;6.968;2023-08-24T06:34:15;17.50;99.90
56725;DHT22;42608;52.776;6.968;2023-08-24T06:36:41;17.50;99.90
56725;DHT22;42608;52.776;6.968;2023-08-24T06:39:07;17.60;99.90
56725;DHT22;42608;52.776;6.968;2023-08-24T06:41:33;17.60;99.90
56725;DHT22;42608;52.776;6.968;2023-08-24T06:44:00;17.70;99.90
56725;DHT22;42608;52.776;6.968;2023-08-24T06:46:25;17.70;99.90
56725;DHT22;42608;52.776;6.968;2023-08-24T06:48:51;17.70;99.90
56725;DHT22;42608;52.776;6.968;2023-08-24T06:51:16;17.70;99.90
56725;DHT22;42608;52.776;6.968;2023-08-24T06:53:42;17.80;99.90
56725;DHT22;42608;52.776;6.968;2023-08-24T06:56:08;17.80;99.90
56725;DHT22;42608;52.776;6.968;2023-08-24T06:58:36;17.90;99.90
56725;DHT22;42608;52.776;6.968;2023-08-24T07:01:01;18.00;99.90
56725;DHT22;42608;52.776;6.968;2023-08-24T07:03:31;18.10;99.90
56725;DHT22;42608;52.776;6.968;2023-08-24T07:05:58;18.10;99.90
56725;DHT22;42608;52.776;6.968;2023-08-24T07:08:24;18.20;99.90
56725;DHT22;42608;52.776;6.968;2023-08-24T07:10:49;18.20;99.90
56725;DHT22;42608;52.776;6.968;2023-08-24T07:13:15;18.30;99.90
56725;DHT22;42608;52.776;6.968;2023-08-24T07:15:41;18.40;99.90
56725;DHT22;42608;52.776;6.968;2023-08-24T07:18:07;18.50;99.90
56725;DHT22;42608;52.776;6.968;2023-08-24T07:20:34;18.50;99.90
56725;DHT22;42608;52.776;6.968;2023-08-24T07:23:00;18.60;99.90
56725;DHT22;42608;52.776;6.968;2023-08-24T07:25:26;18.70;99.90
56725;DHT22;42608;52.776;6.968;2023-08-24T07:27:53;18.70;99.90
56725;DHT22;42608;52.776;6.968;2023-08-24T07:30:24;18.80;99.90
56725;DHT22;42608;52.776;6.968;2023-08-24T07:32:49;18.90;99.90
56725;DHT22;42608;52.776;6.968;2023-08-24T07:35:15;18.90;99.90
56725;DHT22;42608;52.776;6.968;2023-08-24T07:37:41;19.00;99.90
56725;DHT22;42608;52.776;6.968;2023-08-24T07:40:07;19.00;99.90
56725;DHT22;42608;52.776;6.968;2023-08-24T07:42:42;19.10;99.90
56725;DHT22;42608;52.776;6.968;2023-08-24T07:45:08;19.20;99.90
56725;DHT22;42608;52.776;6.968;2023-08-24T07:47:33;19.20;99.90
56725;DHT22;42608;52.776;6.968;2023-08-24T07:49:59;19.20;99.90
56725;DHT22;42608;52.776;6.968;2023-08-24T07:52:25;19.30;99.90
56725;DHT22;42608;52.776;6.968;2023-08-24T07:54:52;19.40;99.90
56725;DHT22;42608;52.776;6.968;2023-08-24T07:57:21;19.40;99.90
56725;DHT22;42608;52.776;6.968;2023-08-24T07:59:46;19.50;99.90
56725;DHT22;42608;52.776;6.968;2023-08-24T08:02:12;19.60;99.90
56725;DHT22;42608;52.776;6.968;2023-08-24T08:04:40;19.60;99.90
56725;DHT22;42608;52.776;6.968;2023-08-24T08:07:06;19.70;99.90
56725;DHT22;42608;52.776;6.968;2023-08-24T08:09:31;19.70;99.90
56725;DHT22;42608;52.776;6.968;2023-08-24T08:11:57;19.70;99.90
56725;DHT22;42608;52.776;6.968;2023-08-24T08:14:22;19.80;99.90
56725;DHT22;42608;52.776;6.968;2023-08-24T08:16:49;19.90;99.90
56725;DHT22;42608;52.776;6.968;2023-08-24T08:19:14;19.90;99.90
56725;DHT22;42608;52.776;6.968;2023-08-24T08:21:40;20.00;99.90
56725;DHT22;42608;52.776;6.968;2023-08-24T08:24:05;20.10;99.90
56725;DHT22;42608;52.776;6.968;2023-08-24T08:26:31;20.10;99.90
56725;DHT22;42608;52.776;6.968;2023-08-24T08:28:57;20.20;99.90
56725;DHT22;42608;52.776;6.968;2023-08-24T08:31:22;20.20;99.90
56725;DHT22;42608;52.776;6.968;2023-08-24T08:33:48;20.20;99.90
56725;DHT22;42608;52.776;6.968;2023-08-24T08:36:14;20.30;99.90
56725;DHT22;42608;52.776;6.968;2023-08-24T08:38:39;20.40;99.90
56725;DHT22;42608;52.776;6.968;2023-08-24T08:41:05;20.50;99.90
56725;DHT22;42608;52.776;6.968;2023-08-24T08:43:30;20.60;99.90
56725;DHT22;42608;52.776;6.968;2023-08-24T08:45:56;20.60;99.90
56725;DHT22;42608;52.776;6.968;2023-08-24T08:48:23;20.70;99.90
56725;DHT22;42608;52.776;6.968;2023-08-24T08:50:49;20.70;99.90
56725;DHT22;42608;52.776;6.968;2023-08-24T08:53:16;20.80;99.90
56725;DHT22;42608;52.776;6.968;2023-08-24T08:55:42;20.80;99.90
56725;DHT22;42608;52.776;6.968;2023-08-24T08:58:08;20.90;99.90
56725;DHT22;42608;52.776;6.968;2023-08-24T09:00:34;21.00;99.90
56725;DHT22;42608;52.776;6.968;2023-08-24T09:03:00;21.10;99.90
56725;DHT22;42608;52.776;6.968;2023-08-24T09:05:26;21.10;99.90
56725;DHT22;42608;52.776;6.968;2023-08-24T09:07:53;21.20;99.90
56725;DHT22;42608;52.776;6.968;2023-08-24T09:10:18;21.30;99.90
56725;DHT22;42608;52.776;6.968;2023-08-24T09:12:44;21.40;99.90
56725;DHT22;42608;52.776;6.968;2023-08-24T09:15:10;21.50;99.90
56725;DHT22;42608;52.776;6.968;2023-08-24T09:17:35;21.50;99.90
56725;DHT22;42608;52.776;6.968;2023-08-24T09:20:05;21.60;99.90
56725;DHT22;42608;52.776;6.968;2023-08-24T09:22:35;21.70;99.90
56725;DHT22;42608;52.776;6.968;2023-08-24T09:25:02;21.80;99.90
56725;DHT22;42608;52.776;6.968;2023-08-24T09:27:29;21.80;99.90
56725;DHT22;42608;52.776;6.968;2023-08-24T09:29:55;21.80;99.90
56725;DHT22;42608;52.776;6.968;2023-08-24T09:32:24;21.90;99.90
56725;DHT22;42608;52.776;6.968;2023-08-24T09:34:50;21.90;99.90
56725;DHT22;42608;52.776;6.968;2023-08-24T09:37:16;22.00;99.90
56725;DHT22;42608;52.776;6.968;2023-08-24T09:39:42;22.10;99.90
56725;DHT22;42608;52.776;6.968;2023-08-24T09:42:07;22.20;99.90
56725;DHT22;42608;52.776;6.968;2023-08-24T09:44:33;22.30;99.90
56725;DHT22;42608;52.776;6.968;2023-08-24T09:46:59;22.40;99.90
56725;DHT22;42608;52.776;6.968;2023-08-24T09:49:24;22.50;99.90
56725;DHT22;42608;52.776;6.968;2023-08-24T09:51:52;22.70;99.90
56725;DHT22;42608;52.776;6.968;2023-08-24T09:54:20;22.70;99.90
56725;DHT22;42608;52.776;6.968;2023-08-24T09:56:47;22.80;99.90
56725;DHT22;42608;52.776;6.968;2023-08-24T09:59:14;22.90;99.90
56725;DHT22;42608;52.776;6.968;2023-08-24T10:01:43;22.90;99.90
56725;DHT22;42608;52.776;6.968;2023-08-24T10:04:09;23.00;99.90
56725;DHT22;42608;52.776;6.968;2023-08-24T10:06:35;23.00;99.90
56725;DHT22;42608;52.776;6.968;2023-08-24T10:09:02;23.00;99.90
56725;DHT22;42608;52.776;6.968;2023-08-24T10:11:30;23.00;99.90
56725;DHT22;42608;52.776;6.968;2023-08-24T10:14:21;23.00;99.90
56725;DHT22;42608;52.776;6.968;2023-08-24T10:16:44;23.00;99.90
56725;DHT22;42608;52.776;6.968;2023-08-24T10:19:11;23.00;99.90
56725;DHT22;42608;52.776;6.968;2023-08-24T10:21:38;23.10;99.90
56725;DHT22;42608;52.776;6.968;2023-08-24T10:24:04;23.10;99.90
56725;DHT22;42608;52.776;6.968;2023-08-24T10:26:30;23.10;99.90
56725;DHT22;42608;52.776;6.968;2023-08-24T10:28:57;23.10;99.90
56725;DHT22;42608;52.776;6.968;2023-08-24T10:31:23;23.10;99.90
56725;DHT22;42608;52.776;6.968;2023-08-24T10:33:49;23.10;99.90
56725;DHT22;42608;52.776;6.968;2023-08-24T10:36:15;23.20;99.90
56725;DHT22;42608;52.776;6.968;2023-08-24T10:38:42;23.20;99.90
56725;DHT22;42608;52.776;6.968;2023-08-24T10:41:08;23.20;99.90
56725;DHT22;42608;52.776;6.968;2023-08-24T10:43:34;23.20;99.90
56725;DHT22;42608;52.776;6.968;2023-08-24T10:46:00;23.30;99.90
56725;DHT22;42608;52.776;6.968;2023-08-24T10:48:27;23.30;99.90
56725;DHT22;42608;52.776;6.968;2023-08-24T10:51:15;23.30;99.90
56725;DHT22;42608;52.776;6.968;2023-08-24T10:53:43;23.30;99.90
56725;DHT22;42608;52.776;6.968;2023-08-24T10:56:12;23.30;99.90
56725;DHT22;42608;52.776;6.968;2023-08-24T10:58:38;23.40;99.90
56725;DHT22;42608;52.776;6.968;2023-08-24T11:01:04;23.40;99.90
56725;DHT22;42608;52.776;6.968;2023-08-24T11:03:33;23.40;99.90
56725;DHT22;42608;52.776;6.968;2023-08-24T11:05:58;23.40;99.90
56725;DHT22;42608;52.776;6.968;2023-08-24T11:11:17;23.50;99.90
56725;DHT22;42608;52.776;6.968;2023-08-24T11:16:43;23.60;99.90
56725;DHT22;42608;52.776;6.968;2023-08-24T11:19:12;23.60;99.90
56725;DHT22;42608;52.776;6.968;2023-08-24T11:21:38;23.70;99.90
56725;DHT22;42608;52.776;6.968;2023-08-24T11:24:05;23.80;99.90
56725;DHT22;42608;52.776;6.968;2023-08-24T11:26:30;23.90;99.90
56725;DHT22;42608;52.776;6.968;2023-08-24T11:28:56;23.90;99.90
56725;DHT22;42608;52.776;6.968;2023-08-24T11:31:23;24.00;99.90
56725;DHT22;42608;52.776;6.968;2023-08-24T11:33:53;24.00;99.90
56725;DHT22;42608;52.776;6.968;2023-08-24T11:36:18;24.10;99.90
56725;DHT22;42608;52.776;6.968;2023-08-24T11:38:44;24.10;99.90
56725;DHT22;42608;52.776;6.968;2023-08-24T11:41:13;24.10;99.90
56725;DHT22;42608;52.776;6.968;2023-08-24T11:43:39;24.20;99.90
56725;DHT22;42608;52.776;6.968;2023-08-24T11:46:04;24.20;99.90
56725;DHT22;42608;52.776;6.968;2023-08-24T11:48:30;24.20;99.90
56725;DHT22;42608;52.776;6.968;2023-08-24T11:50:59;24.20;99.90
56725;DHT22;42608;52.776;6.968;2023-08-24T11:53:25;24.20;99.90
56725;DHT22;42608;52.776;6.968;2023-08-24T11:55:52;24.20;99.90
56725;DHT22;42608;52.776;6.968;2023-08-24T11:58:18;24.30;99.90
56725;DHT22;42608;52.776;6.968;2023-08-24T12:00:43;24.30;99.90
56725;DHT22;42608;52.776;6.968;2023-08-24T12:03:10;24.30;99.90
56725;DHT22;42608;52.776;6.968;2023-08-24T12:05:35;24.30;99.90
56725;DHT22;42608;52.776;6.968;2023-08-24T12:08:01;24.30;99.90
56725;DHT22;42608;52.776;6.968;2023-08-24T12:10:26;24.30;99.90
56725;DHT22;42608;52.776;6.968;2023-08-24T12:13:04;24.40;99.90
56725;DHT22;42608;52.776;6.968;2023-08-24T12:15:35;24.30;99.90
56725;DHT22;42608;52.776;6.968;2023-08-24T12:18:11;24.40;99.90
56725;DHT22;42608;52.776;6.968;2023-08-24T12:20:37;24.30;99.90
56725;DHT22;42608;52.776;6.968;2023-08-24T12:23:03;24.30;99.90
56725;DHT22;42608;52.776;6.968;2023-08-24T12:25:38;24.30;99.90
56725;DHT22;42608;52.776;6.968;2023-08-24T12:28:14;24.30;99.90
56725;DHT22;42608;52.776;6.968;2023-08-24T12:30:58;24.30;99.90
56725;DHT22;42608;52.776;6.968;2023-08-24T12:33:28;24.30;99.90
56725;DHT22;42608;52.776;6.968;2023-08-24T12:35:54;24.30;99.90
56725;DHT22;42608;52.776;6.968;2023-08-24T12:38:21;24.30;99.90
56725;DHT22;42608;52.776;6.968;2023-08-24T12:40:46;24.40;99.90
56725;DHT22;42608;52.776;6.968;2023-08-24T12:43:12;24.40;99.90
56725;DHT22;42608;52.776;6.968;2023-08-24T12:45:38;24.50;99.90
56725;DHT22;42608;52.776;6.968;2023-08-24T12:48:04;24.60;99.90
56725;DHT22;42608;52.776;6.968;2023-08-24T12:50:30;24.70;99.90
56725;DHT22;42608;52.776;6.968;2023-08-24T12:52:55;24.80;99.90
56725;DHT22;42608;52.776;6.968;2023-08-24T12:55:25;24.90;99.90
56725;DHT22;42608;52.776;6.968;2023-08-24T12:57:50;25.00;99.90
56725;DHT22;42608;52.776;6.968;2023-08-24T13:00:16;25.10;99.90
56725;DHT22;42608;52.776;6.968;2023-08-24T13:02:41;25.20;99.90
56725;DHT22;42608;52.776;6.968;2023-08-24T13:05:07;25.20;99.90
56725;DHT22;42608;52.776;6.968;2023-08-24T13:07:33;25.20;99.90
56725;DHT22;42608;52.776;6.968;2023-08-24T13:09:59;25.30;99.90
56725;DHT22;42608;52.776;6.968;2023-08-24T13:12:24;25.30;99.90
56725;DHT22;42608;52.776;6.968;2023-08-24T13:14:50;25.40;99.90
56725;DHT22;42608;52.776;6.968;2023-08-24T13:17:16;25.40;99.90
56725;DHT22;42608;52.776;6.968;2023-08-24T13:19:41;25.40;99.90
56725;DHT22;42608;52.776;6.968;2023-08-24T13:22:07;25.40;99.90
56725;DHT22;42608;52.776;6.968;2023-08-24T13:24:33;25.40;99.90
56725;DHT22;42608;52.776;6.968;2023-08-24T13:26:59;25.40;99.90
56725;DHT22;42608;52.776;6.968;2023-08-24T13:29:25;25.40;99.90
56725;DHT22;42608;52.776;6.968;2023-08-24T13:31:51;25.40;99.90
56725;DHT22;42608;52.776;6.968;2023-08-24T13:34:16;25.40;99.90
56725;DHT22;42608;52.776;6.968;2023-08-24T13:36:45;25.40;99.90
56725;DHT22;42608;52.776;6.968;2023-08-24T13:39:10;25.40;99.90
56725;DHT22;42608;52.776;6.968;2023-08-24T13:41:36;25.50;99.90
56725;DHT22;42608;52.776;6.968;2023-08-24T13:44:02;25.50;99.90
56725;DHT22;42608;52.776;6.968;2023-08-24T13:46:28;25.50;99.90
56725;DHT22;42608;52.776;6.968;2023-08-24T13:48:53;25.50;99.90
56725;DHT22;42608;52.776;6.968;2023-08-24T13:51:19;25.50;99.90
56725;DHT22;42608;52.776;6.968;2023-08-24T13:53:44;25.60;99.90
56725;DHT22;42608;52.776;6.968;2023-08-24T13:56:10;25.60;99.90
56725;DHT22;42608;52.776;6.968;2023-08-24T13:58:35;25.60;99.90
56725;DHT22;42608;52.776;6.968;2023-08-24T14:01:01;25.70;99.90
56725;DHT22;42608;52.776;6.968;2023-08-24T14:03:28;25.70;99.90
56725;DHT22;42608;52.776;6.968;2023-08-24T14:05:57;25.60;99.90
56725;DHT22;42608;52.776;6.968;2023-08-24T14:08:22;25.60;99.90
56725;DHT22;42608;52.776;6.968;2023-08-24T14:10:48;25.60;99.90
56725;DHT22;42608;52.776;6.968;2023-08-24T14:13:14;25.60;99.90
56725;DHT22;42608;52.776;6.968;2023-08-24T14:15:40;25.50;99.90
56725;DHT22;42608;52.776;6.968;2023-08-24T14:18:05;25.40;99.90
56725;DHT22;42608;52.776;6.968;2023-08-24T14:20:31;25.40;99.90
56725;DHT22;42608;52.776;6.968;2023-08-24T14:22:56;25.40;99.90
56725;DHT22;42608;52.776;6.968;2023-08-24T14:25:22;25.40;99.90
56725;DHT22;42608;52.776;6.968;2023-08-24T14:27:48;25.30;99.90
56725;DHT22;42608;52.776;6.968;2023-08-24T14:30:14;25.30;99.90
56725;DHT22;42608;52.776;6.968;2023-08-24T14:32:39;25.20;99.90
56725;DHT22;42608;52.776;6.968;2023-08-24T14:35:05;25.20;99.90
56725;DHT22;42608;52.776;6.968;2023-08-24T14:37:31;25.10;99.90
56725;DHT22;42608;52.776;6.968;2023-08-24T14:39:58;25.10;99.90
56725;DHT22;42608;52.776;6.968;2023-08-24T14:42:24;25.00;99.90
56725;DHT22;42608;52.776;6.968;2023-08-24T14:44:50;25.00;99.90
56725;DHT22;42608;52.776;6.968;2023-08-24T14:47:15;24.90;99.90
56725;DHT22;42608;52.776;6.968;2023-08-24T14:49:41;24.90;99.90
56725;DHT22;42608;52.776;6.968;2023-08-24T14:52:06;24.90;99.90
56725;DHT22;42608;52.776;6.968;2023-08-24T14:54:32;24.90;99.90
56725;DHT22;42608;52.776;6.968;2023-08-24T14:56:58;24.90;99.90
56725;DHT22;42608;52.776;6.968;2023-08-24T14:59:25;24.80;99.90
56725;DHT22;42608;52.776;6.968;2023-08-24T15:01:51;24.80;99.90
56725;DHT22;42608;52.776;6.968;2023-08-24T15:04:17;24.80;99.90
56725;DHT22;42608;52.776;6.968;2023-08-24T15:06:42;24.80;99.90
56725;DHT22;42608;52.776;6.968;2023-08-24T15:09:08;24.80;99.90
56725;DHT22;42608;52.776;6.968;2023-08-24T15:11:33;24.80;99.90
56725;DHT22;42608;52.776;6.968;2023-08-24T15:13:59;24.70;99.90
56725;DHT22;42608;52.776;6.968;2023-08-24T15:16:24;24.70;99.90
56725;DHT22;42608;52.776;6.968;2023-08-24T15:18:50;24.70;99.90
56725;DHT22;42608;52.776;6.968;2023-08-24T15:21:15;24.70;99.90
56725;DHT22;42608;52.776;6.968;2023-08-24T15:23:41;24.70;99.90
56725;DHT22;42608;52.776;6.968;2023-08-24T15:26:07;24.60;99.90
56725;DHT22;42608;52.776;6.968;2023-08-24T15:28:37;24.60;99.90
56725;DHT22;42608;52.776;6.968;2023-08-24T15:31:03;24.60;99.90
56725;DHT22;42608;52.776;6.968;2023-08-24T15:33:29;24.60;99.90
56725;DHT22;42608;52.776;6.968;2023-08-24T15:35:55;24.60;99.90